createdAt,value
2017-11-11T00:06:21.598Z,0
2017-11-11T00:16:21.585Z,0
2017-11-11T00:26:22.017Z,0
2017-11-11T00:36:21.645Z,0
2017-11-11T00:46:21.691Z,0
2017-11-11T00:56:21.987Z,0
2017-11-11T01:06:21.685Z,0
2017-11-11T01:16:21.685Z,0
2017-11-11T01:26:21.746Z,0
2017-11-11T01:36:21.785Z,0
2017-11-11T01:46:21.666Z,0
2017-11-11T01:56:22.029Z,0
2017-11-11T02:06:21.717Z,0
2017-11-11T02:16:21.678Z,0
2017-11-11T02:26:22.058Z,0
2017-11-11T02:36:21.689Z,0
2017-11-11T02:46:21.746Z,0
2017-11-11T02:56:21.711Z,0
2017-11-11T03:06:21.774Z,0
2017-11-11T03:16:21.733Z,0
2017-11-11T03:26:21.802Z,0
2017-11-11T03:36:21.781Z,0
2017-11-11T03:46:21.787Z,0
2017-11-11T03:56:22.074Z,0
2017-11-11T04:06:21.835Z,0
2017-11-11T04:16:21.787Z,0
2017-11-11T04:26:21.760Z,0
2017-11-11T04:36:21.784Z,0
2017-11-11T04:46:21.752Z,0
2017-11-11T04:56:21.826Z,0
2017-11-11T05:06:21.787Z,0
2017-11-11T05:16:21.886Z,0
2017-11-11T05:26:22.086Z,0
2017-11-11T05:36:21.861Z,0
2017-11-11T05:46:21.845Z,0
2017-11-11T05:56:21.928Z,0
2017-11-11T06:06:21.847Z,0
2017-11-11T06:16:21.967Z,8
2017-11-11T06:26:22.086Z,36
2017-11-11T06:36:21.865Z,108
2017-11-11T06:46:21.895Z,332
2017-11-11T06:56:21.855Z,508
2017-11-11T07:06:21.960Z,520
2017-11-11T07:16:21.888Z,1028
2017-11-11T07:26:21.967Z,712
2017-11-11T07:36:21.908Z,1588
2017-11-11T07:46:21.977Z,2240
2017-11-11T07:56:21.951Z,1580
2017-11-11T08:06:22.044Z,3608
2017-11-11T08:16:21.973Z,3212
2017-11-11T08:26:22.227Z,3700
2017-11-11T08:36:22.006Z,4292
2017-11-11T08:46:21.956Z,4328
2017-11-11T08:56:22.002Z,4452
2017-11-11T09:06:22.061Z,3136
2017-11-11T09:16:22.022Z,4488
2017-11-11T09:26:22.078Z,2256
2017-11-11T09:36:22.047Z,2024
2017-11-11T09:46:22.013Z,1944
2017-11-11T09:56:21.997Z,3216
2017-11-11T10:06:22.044Z,3980
2017-11-11T10:16:22.032Z,2008
2017-11-11T10:26:22.157Z,2276
2017-11-11T10:36:22.176Z,2448
2017-11-11T10:46:22.081Z,3340
2017-11-11T10:56:22.247Z,3400
2017-11-11T11:06:22.120Z,5596
2017-11-11T11:16:22.503Z,4284
2017-11-11T11:26:22.176Z,3592
2017-11-11T11:36:22.193Z,1900
2017-11-11T11:46:23.252Z,3324
2017-11-11T11:56:22.269Z,2596
2017-11-11T12:06:22.251Z,1496
2017-11-11T12:16:22.233Z,1088
2017-11-11T12:26:22.298Z,2288
2017-11-11T12:36:22.186Z,2428
2017-11-11T12:46:22.237Z,2104
2017-11-11T12:56:22.546Z,3332
2017-11-11T13:06:22.190Z,4952
2017-11-11T13:16:22.214Z,5528
2017-11-11T13:26:22.225Z,3824
2017-11-11T13:36:22.234Z,2296
2017-11-11T13:46:22.182Z,976
2017-11-11T13:56:22.436Z,1784
2017-11-11T14:06:22.282Z,1312
2017-11-11T14:16:22.377Z,1184
2017-11-11T14:26:22.493Z,880
2017-11-11T14:36:22.241Z,736
2017-11-11T14:46:22.368Z,656
2017-11-11T14:56:22.506Z,708
2017-11-11T15:06:22.542Z,520
2017-11-11T15:16:22.269Z,496
2017-11-11T15:26:23.011Z,408
2017-11-11T15:36:23.300Z,296
2017-11-11T15:46:22.634Z,136
2017-11-11T15:56:22.488Z,40
2017-11-11T16:06:22.402Z,12
2017-11-11T16:16:22.500Z,0
2017-11-11T16:26:22.394Z,0
2017-11-11T16:36:22.614Z,0
2017-11-11T16:46:22.508Z,0
2017-11-11T16:56:22.361Z,0
2017-11-11T17:06:22.388Z,0
2017-11-11T17:16:22.591Z,0
2017-11-11T17:26:23.950Z,0
2017-11-11T17:36:22.512Z,0
2017-11-11T17:46:22.912Z,0
2017-11-11T17:56:22.736Z,0
2017-11-11T18:06:22.587Z,0
2017-11-11T18:16:22.675Z,0
2017-11-11T18:26:22.895Z,0
2017-11-11T18:36:23.565Z,0
2017-11-11T18:46:22.610Z,0
2017-11-11T18:56:22.468Z,0
2017-11-11T19:06:23.355Z,0
2017-11-11T19:16:25.141Z,0
2017-11-11T19:26:24.126Z,0
2017-11-11T19:36:23.754Z,0
2017-11-11T19:46:22.780Z,0
2017-11-11T19:56:23.412Z,0
2017-11-11T20:06:24.110Z,0
2017-11-11T20:16:23.872Z,0
2017-11-11T20:26:23.870Z,0
2017-11-11T20:36:26.106Z,0
2017-11-11T20:46:23.146Z,0
2017-11-11T20:56:24.183Z,0
2017-11-11T21:06:23.596Z,0
2017-11-11T21:16:22.580Z,0
2017-11-11T21:26:23.852Z,0
2017-11-11T21:36:24.097Z,0
2017-11-11T21:46:23.288Z,0
2017-11-11T21:56:23.210Z,0
2017-11-11T22:06:23.142Z,0
2017-11-11T22:16:22.899Z,0
2017-11-11T22:26:22.697Z,0
2017-11-11T22:36:23.303Z,0
2017-11-11T22:46:24.554Z,0
2017-11-11T22:56:22.645Z,0
2017-11-11T23:06:22.669Z,0
2017-11-11T23:16:22.682Z,0
2017-11-11T23:26:22.684Z,0
2017-11-11T23:36:22.649Z,0
2017-11-11T23:46:22.700Z,0
2017-11-11T23:56:22.704Z,0
